sensor_id;sensor_type;location;lat;lon;timestamp;P1;durP1;ratioP1;P2;durP2;ratioP2
35518;SDS011;21627;48.216;16.482;2023-05-29T00:00:50;10.95;;;4.90;;
35518;SDS011;21627;48.216;16.482;2023-05-29T00:03:18;9.70;;;4.28;;
35518;SDS011;21627;48.216;16.482;2023-05-29T00:05:45;10.38;;;4.15;;
35518;SDS011;21627;48.216;16.482;2023-05-29T00:08:12;7.15;;;4.20;;
35518;SDS011;21627;48.216;16.482;2023-05-29T00:10:40;9.13;;;4.35;;
35518;SDS011;21627;48.216;16.482;2023-05-29T00:13:07;9.00;;;5.03;;
35518;SDS011;21627;48.216;16.482;2023-05-29T00:15:34;10.25;;;4.53;;
35518;SDS011;21627;48.216;16.482;2023-05-29T00:18:01;9.30;;;4.50;;
35518;SDS011;21627;48.216;16.482;2023-05-29T00:20:29;9.63;;;4.72;;
35518;SDS011;21627;48.216;16.482;2023-05-29T00:22:56;12.85;;;3.97;;
35518;SDS011;21627;48.216;16.482;2023-05-29T00:25:23;7.40;;;4.13;;
35518;SDS011;21627;48.216;16.482;2023-05-29T00:27:50;10.65;;;4.47;;
35518;SDS011;21627;48.216;16.482;2023-05-29T00:30:17;10.38;;;4.38;;
35518;SDS011;21627;48.216;16.482;2023-05-29T00:32:45;10.05;;;4.70;;
35518;SDS011;21627;48.216;16.482;2023-05-29T00:35:12;7.65;;;4.28;;
35518;SDS011;21627;48.216;16.482;2023-05-29T00:37:39;7.30;;;4.40;;
35518;SDS011;21627;48.216;16.482;2023-05-29T00:40:07;9.60;;;4.22;;
35518;SDS011;21627;48.216;16.482;2023-05-29T00:42:34;12.35;;;3.92;;
35518;SDS011;21627;48.216;16.482;2023-05-29T00:45:02;9.88;;;4.95;;
35518;SDS011;21627;48.216;16.482;2023-05-29T00:47:29;8.35;;;4.40;;
35518;SDS011;21627;48.216;16.482;2023-05-29T00:49:57;8.98;;;4.70;;
35518;SDS011;21627;48.216;16.482;2023-05-29T00:52:24;16.23;;;4.72;;
35518;SDS011;21627;48.216;16.482;2023-05-29T00:54:54;11.13;;;4.70;;
35518;SDS011;21627;48.216;16.482;2023-05-29T00:57:21;10.18;;;4.30;;
35518;SDS011;21627;48.216;16.482;2023-05-29T00:59:49;10.68;;;4.50;;
35518;SDS011;21627;48.216;16.482;2023-05-29T01:02:17;11.90;;;4.60;;
35518;SDS011;21627;48.216;16.482;2023-05-29T01:04:46;7.65;;;4.10;;
35518;SDS011;21627;48.216;16.482;2023-05-29T01:07:14;10.63;;;4.63;;
35518;SDS011;21627;48.216;16.482;2023-05-29T01:09:41;8.63;;;4.90;;
35518;SDS011;21627;48.216;16.482;2023-05-29T01:27:05;9.68;;;4.10;;
35518;SDS011;21627;48.216;16.482;2023-05-29T01:29:37;6.75;;;3.85;;
35518;SDS011;21627;48.216;16.482;2023-05-29T01:32:09;8.00;;;3.55;;
35518;SDS011;21627;48.216;16.482;2023-05-29T01:34:37;10.68;;;4.50;;
35518;SDS011;21627;48.216;16.482;2023-05-29T01:37:04;7.72;;;3.60;;
35518;SDS011;21627;48.216;16.482;2023-05-29T01:39:32;7.55;;;4.03;;
35518;SDS011;21627;48.216;16.482;2023-05-29T01:42:00;8.00;;;3.60;;
35518;SDS011;21627;48.216;16.482;2023-05-29T01:44:28;8.60;;;4.00;;
35518;SDS011;21627;48.216;16.482;2023-05-29T01:46:56;7.65;;;4.07;;
35518;SDS011;21627;48.216;16.482;2023-05-29T01:49:24;6.03;;;3.63;;
35518;SDS011;21627;48.216;16.482;2023-05-29T01:51:53;8.25;;;3.28;;
35518;SDS011;21627;48.216;16.482;2023-05-29T01:54:20;10.48;;;4.22;;
35518;SDS011;21627;48.216;16.482;2023-05-29T01:56:47;8.18;;;3.85;;
35518;SDS011;21627;48.216;16.482;2023-05-29T01:59:16;7.60;;;4.18;;
35518;SDS011;21627;48.216;16.482;2023-05-29T02:01:44;6.93;;;3.78;;
35518;SDS011;21627;48.216;16.482;2023-05-29T02:04:11;8.95;;;3.85;;
35518;SDS011;21627;48.216;16.482;2023-05-29T02:06:38;6.18;;;3.78;;
35518;SDS011;21627;48.216;16.482;2023-05-29T02:09:06;8.65;;;3.60;;
35518;SDS011;21627;48.216;16.482;2023-05-29T02:11:33;8.05;;;4.00;;
35518;SDS011;21627;48.216;16.482;2023-05-29T02:14:00;12.07;;;4.00;;
35518;SDS011;21627;48.216;16.482;2023-05-29T02:16:28;9.63;;;3.95;;
35518;SDS011;21627;48.216;16.482;2023-05-29T02:18:55;7.30;;;3.72;;
35518;SDS011;21627;48.216;16.482;2023-05-29T02:21:23;9.13;;;3.97;;
35518;SDS011;21627;48.216;16.482;2023-05-29T02:23:50;7.20;;;4.20;;
35518;SDS011;21627;48.216;16.482;2023-05-29T02:26:17;5.68;;;3.45;;
35518;SDS011;21627;48.216;16.482;2023-05-29T02:28:44;7.18;;;4.00;;
35518;SDS011;21627;48.216;16.482;2023-05-29T02:31:11;8.30;;;3.90;;
35518;SDS011;21627;48.216;16.482;2023-05-29T02:33:38;6.18;;;3.42;;
35518;SDS011;21627;48.216;16.482;2023-05-29T02:36:06;8.07;;;3.80;;
35518;SDS011;21627;48.216;16.482;2023-05-29T02:38:36;8.32;;;4.32;;
35518;SDS011;21627;48.216;16.482;2023-05-29T02:41:03;6.80;;;4.00;;
35518;SDS011;21627;48.216;16.482;2023-05-29T02:43:32;7.90;;;4.05;;
35518;SDS011;21627;48.216;16.482;2023-05-29T02:45:59;9.25;;;3.97;;
35518;SDS011;21627;48.216;16.482;2023-05-29T02:48:26;9.20;;;4.40;;
35518;SDS011;21627;48.216;16.482;2023-05-29T02:50:53;8.82;;;4.45;;
35518;SDS011;21627;48.216;16.482;2023-05-29T02:53:21;6.40;;;3.97;;
35518;SDS011;21627;48.216;16.482;2023-05-29T02:55:48;11.55;;;4.28;;
35518;SDS011;21627;48.216;16.482;2023-05-29T02:58:17;10.45;;;3.85;;
35518;SDS011;21627;48.216;16.482;2023-05-29T03:00:44;7.43;;;3.90;;
35518;SDS011;21627;48.216;16.482;2023-05-29T03:03:12;11.25;;;4.30;;
35518;SDS011;21627;48.216;16.482;2023-05-29T03:05:40;8.57;;;4.80;;
35518;SDS011;21627;48.216;16.482;2023-05-29T03:08:07;8.48;;;4.07;;
35518;SDS011;21627;48.216;16.482;2023-05-29T03:10:34;8.27;;;4.28;;
35518;SDS011;21627;48.216;16.482;2023-05-29T03:13:01;8.02;;;4.18;;
35518;SDS011;21627;48.216;16.482;2023-05-29T03:15:28;8.13;;;4.25;;
35518;SDS011;21627;48.216;16.482;2023-05-29T03:17:55;7.40;;;3.75;;
35518;SDS011;21627;48.216;16.482;2023-05-29T03:20:22;9.88;;;4.78;;
35518;SDS011;21627;48.216;16.482;2023-05-29T03:22:50;7.68;;;4.43;;
35518;SDS011;21627;48.216;16.482;2023-05-29T03:25:17;6.78;;;4.10;;
35518;SDS011;21627;48.216;16.482;2023-05-29T03:27:46;7.32;;;4.10;;
35518;SDS011;21627;48.216;16.482;2023-05-29T03:30:13;7.15;;;4.50;;
35518;SDS011;21627;48.216;16.482;2023-05-29T03:32:40;7.47;;;3.97;;
35518;SDS011;21627;48.216;16.482;2023-05-29T03:35:07;8.90;;;3.95;;
35518;SDS011;21627;48.216;16.482;2023-05-29T03:37:34;7.85;;;3.97;;
35518;SDS011;21627;48.216;16.482;2023-05-29T03:40:02;7.20;;;3.75;;
35518;SDS011;21627;48.216;16.482;2023-05-29T03:42:30;11.25;;;4.22;;
35518;SDS011;21627;48.216;16.482;2023-05-29T03:44:58;8.25;;;3.63;;
35518;SDS011;21627;48.216;16.482;2023-05-29T03:47:25;8.38;;;4.07;;
35518;SDS011;21627;48.216;16.482;2023-05-29T03:49:52;7.55;;;4.53;;
35518;SDS011;21627;48.216;16.482;2023-05-29T03:52:19;10.73;;;4.30;;
35518;SDS011;21627;48.216;16.482;2023-05-29T03:54:47;9.50;;;4.10;;
35518;SDS011;21627;48.216;16.482;2023-05-29T03:57:14;11.30;;;4.10;;
35518;SDS011;21627;48.216;16.482;2023-05-29T03:59:41;8.38;;;4.50;;
35518;SDS011;21627;48.216;16.482;2023-05-29T04:02:08;10.23;;;4.57;;
35518;SDS011;21627;48.216;16.482;2023-05-29T04:04:38;11.68;;;4.75;;
35518;SDS011;21627;48.216;16.482;2023-05-29T04:07:06;8.73;;;3.80;;
35518;SDS011;21627;48.216;16.482;2023-05-29T04:09:36;8.80;;;4.35;;
35518;SDS011;21627;48.216;16.482;2023-05-29T04:12:03;6.28;;;4.20;;
35518;SDS011;21627;48.216;16.482;2023-05-29T04:14:32;8.85;;;4.28;;
35518;SDS011;21627;48.216;16.482;2023-05-29T04:16:59;9.32;;;4.43;;
35518;SDS011;21627;48.216;16.482;2023-05-29T04:19:26;10.95;;;4.22;;
35518;SDS011;21627;48.216;16.482;2023-05-29T04:21:53;7.88;;;3.90;;
35518;SDS011;21627;48.216;16.482;2023-05-29T04:24:20;7.63;;;4.32;;
35518;SDS011;21627;48.216;16.482;2023-05-29T04:26:47;7.68;;;3.88;;
35518;SDS011;21627;48.216;16.482;2023-05-29T04:29:14;7.97;;;4.32;;
35518;SDS011;21627;48.216;16.482;2023-05-29T04:31:41;8.80;;;4.10;;
35518;SDS011;21627;48.216;16.482;2023-05-29T04:34:09;11.73;;;4.65;;
35518;SDS011;21627;48.216;16.482;2023-05-29T04:36:36;8.88;;;4.80;;
35518;SDS011;21627;48.216;16.482;2023-05-29T04:39:07;11.30;;;4.82;;
35518;SDS011;21627;48.216;16.482;2023-05-29T04:41:34;7.85;;;4.47;;
35518;SDS011;21627;48.216;16.482;2023-05-29T04:44:01;11.15;;;4.75;;
35518;SDS011;21627;48.216;16.482;2023-05-29T04:46:30;10.63;;;4.57;;
35518;SDS011;21627;48.216;16.482;2023-05-29T04:48:57;9.30;;;4.78;;
35518;SDS011;21627;48.216;16.482;2023-05-29T04:51:24;13.07;;;4.78;;
35518;SDS011;21627;48.216;16.482;2023-05-29T04:53:54;10.15;;;4.45;;
35518;SDS011;21627;48.216;16.482;2023-05-29T04:56:22;8.85;;;4.22;;
35518;SDS011;21627;48.216;16.482;2023-05-29T04:58:50;10.25;;;4.60;;
35518;SDS011;21627;48.216;16.482;2023-05-29T05:01:17;10.38;;;4.57;;
35518;SDS011;21627;48.216;16.482;2023-05-29T05:03:44;9.65;;;4.45;;
35518;SDS011;21627;48.216;16.482;2023-05-29T05:06:11;8.23;;;4.43;;
35518;SDS011;21627;48.216;16.482;2023-05-29T05:08:39;10.43;;;4.82;;
35518;SDS011;21627;48.216;16.482;2023-05-29T05:11:08;11.07;;;4.03;;
35518;SDS011;21627;48.216;16.482;2023-05-29T05:13:35;11.32;;;4.40;;
35518;SDS011;21627;48.216;16.482;2023-05-29T05:16:03;9.85;;;4.28;;
35518;SDS011;21627;48.216;16.482;2023-05-29T05:18:30;9.30;;;3.97;;
35518;SDS011;21627;48.216;16.482;2023-05-29T05:20:57;12.88;;;4.32;;
35518;SDS011;21627;48.216;16.482;2023-05-29T05:23:25;9.05;;;4.75;;
35518;SDS011;21627;48.216;16.482;2023-05-29T05:25:52;8.05;;;4.18;;
35518;SDS011;21627;48.216;16.482;2023-05-29T05:28:19;6.13;;;4.00;;
35518;SDS011;21627;48.216;16.482;2023-05-29T05:30:46;9.32;;;4.03;;
35518;SDS011;21627;48.216;16.482;2023-05-29T05:33:14;8.38;;;3.63;;
35518;SDS011;21627;48.216;16.482;2023-05-29T05:35:41;6.47;;;3.92;;
35518;SDS011;21627;48.216;16.482;2023-05-29T05:38:08;7.53;;;4.10;;
35518;SDS011;21627;48.216;16.482;2023-05-29T05:40:35;11.07;;;4.00;;
35518;SDS011;21627;48.216;16.482;2023-05-29T05:43:03;8.65;;;4.20;;
35518;SDS011;21627;48.216;16.482;2023-05-29T05:45:30;8.98;;;3.90;;
35518;SDS011;21627;48.216;16.482;2023-05-29T05:47:57;5.45;;;3.70;;
35518;SDS011;21627;48.216;16.482;2023-05-29T05:50:24;7.15;;;3.53;;
35518;SDS011;21627;48.216;16.482;2023-05-29T05:52:52;11.60;;;3.55;;
35518;SDS011;21627;48.216;16.482;2023-05-29T05:55:19;7.22;;;3.90;;
35518;SDS011;21627;48.216;16.482;2023-05-29T05:57:46;9.43;;;4.00;;
35518;SDS011;21627;48.216;16.482;2023-05-29T06:00:13;8.45;;;3.95;;
35518;SDS011;21627;48.216;16.482;2023-05-29T06:02:41;8.27;;;4.15;;
35518;SDS011;21627;48.216;16.482;2023-05-29T06:05:10;9.77;;;4.20;;
35518;SDS011;21627;48.216;16.482;2023-05-29T06:07:38;10.80;;;3.88;;
35518;SDS011;21627;48.216;16.482;2023-05-29T06:10:05;9.88;;;3.92;;
35518;SDS011;21627;48.216;16.482;2023-05-29T06:12:33;7.47;;;3.78;;
35518;SDS011;21627;48.216;16.482;2023-05-29T06:15:03;7.50;;;3.47;;
35518;SDS011;21627;48.216;16.482;2023-05-29T06:17:31;6.20;;;3.40;;
35518;SDS011;21627;48.216;16.482;2023-05-29T06:19:59;9.43;;;3.35;;
35518;SDS011;21627;48.216;16.482;2023-05-29T06:22:26;12.00;;;4.20;;
35518;SDS011;21627;48.216;16.482;2023-05-29T06:24:54;7.38;;;3.78;;
35518;SDS011;21627;48.216;16.482;2023-05-29T06:27:21;11.10;;;3.83;;
35518;SDS011;21627;48.216;16.482;2023-05-29T06:29:51;13.10;;;3.28;;
35518;SDS011;21627;48.216;16.482;2023-05-29T06:32:19;5.57;;;3.70;;
35518;SDS011;21627;48.216;16.482;2023-05-29T06:34:46;7.15;;;3.45;;
35518;SDS011;21627;48.216;16.482;2023-05-29T06:37:13;7.20;;;3.45;;
35518;SDS011;21627;48.216;16.482;2023-05-29T06:39:44;7.38;;;4.30;;
35518;SDS011;21627;48.216;16.482;2023-05-29T06:42:11;8.27;;;2.90;;
35518;SDS011;21627;48.216;16.482;2023-05-29T06:44:38;9.73;;;3.85;;
35518;SDS011;21627;48.216;16.482;2023-05-29T06:47:06;10.68;;;3.83;;
35518;SDS011;21627;48.216;16.482;2023-05-29T06:49:34;6.53;;;3.17;;
35518;SDS011;21627;48.216;16.482;2023-05-29T06:52:01;6.75;;;3.22;;
35518;SDS011;21627;48.216;16.482;2023-05-29T06:54:28;7.38;;;3.90;;
35518;SDS011;21627;48.216;16.482;2023-05-29T06:56:55;8.00;;;3.78;;
35518;SDS011;21627;48.216;16.482;2023-05-29T06:59:36;7.40;;;3.75;;
35518;SDS011;21627;48.216;16.482;2023-05-29T07:02:03;8.45;;;3.75;;
35518;SDS011;21627;48.216;16.482;2023-05-29T07:04:30;6.50;;;3.70;;
35518;SDS011;21627;48.216;16.482;2023-05-29T07:06:57;6.18;;;3.58;;
35518;SDS011;21627;48.216;16.482;2023-05-29T07:09:27;12.10;;;3.53;;
35518;SDS011;21627;48.216;16.482;2023-05-29T07:11:54;8.80;;;3.70;;
35518;SDS011;21627;48.216;16.482;2023-05-29T07:14:22;8.43;;;3.33;;
35518;SDS011;21627;48.216;16.482;2023-05-29T07:16:49;9.07;;;3.42;;
35518;SDS011;21627;48.216;16.482;2023-05-29T07:19:16;8.40;;;3.65;;
35518;SDS011;21627;48.216;16.482;2023-05-29T07:21:47;6.75;;;3.60;;
35518;SDS011;21627;48.216;16.482;2023-05-29T07:24:14;8.20;;;3.80;;
35518;SDS011;21627;48.216;16.482;2023-05-29T07:26:42;8.93;;;3.70;;
35518;SDS011;21627;48.216;16.482;2023-05-29T07:29:09;10.63;;;3.70;;
35518;SDS011;21627;48.216;16.482;2023-05-29T07:31:36;9.50;;;3.28;;
35518;SDS011;21627;48.216;16.482;2023-05-29T07:34:07;11.27;;;3.47;;
35518;SDS011;21627;48.216;16.482;2023-05-29T07:36:34;9.23;;;3.65;;
35518;SDS011;21627;48.216;16.482;2023-05-29T07:39:02;6.60;;;3.58;;
35518;SDS011;21627;48.216;16.482;2023-05-29T07:41:31;8.00;;;3.92;;
35518;SDS011;21627;48.216;16.482;2023-05-29T07:43:59;8.75;;;3.13;;
35518;SDS011;21627;48.216;16.482;2023-05-29T07:46:26;11.15;;;3.70;;
35518;SDS011;21627;48.216;16.482;2023-05-29T07:48:53;7.05;;;2.80;;
35518;SDS011;21627;48.216;16.482;2023-05-29T07:51:20;8.57;;;3.38;;
35518;SDS011;21627;48.216;16.482;2023-05-29T07:53:47;5.43;;;3.20;;
35518;SDS011;21627;48.216;16.482;2023-05-29T07:56:14;6.50;;;3.40;;
35518;SDS011;21627;48.216;16.482;2023-05-29T07:58:43;13.30;;;3.50;;
35518;SDS011;21627;48.216;16.482;2023-05-29T08:01:10;6.53;;;2.90;;
35518;SDS011;21627;48.216;16.482;2023-05-29T08:03:37;6.20;;;3.53;;
35518;SDS011;21627;48.216;16.482;2023-05-29T08:06:05;6.97;;;3.30;;
35518;SDS011;21627;48.216;16.482;2023-05-29T08:08:32;11.35;;;3.40;;
35518;SDS011;21627;48.216;16.482;2023-05-29T08:10:59;7.65;;;3.38;;
35518;SDS011;21627;48.216;16.482;2023-05-29T08:13:26;7.78;;;3.50;;
35518;SDS011;21627;48.216;16.482;2023-05-29T08:15:56;5.75;;;3.22;;
35518;SDS011;21627;48.216;16.482;2023-05-29T08:18:24;5.55;;;3.03;;
35518;SDS011;21627;48.216;16.482;2023-05-29T08:20:52;7.13;;;3.30;;
35518;SDS011;21627;48.216;16.482;2023-05-29T08:23:20;4.38;;;2.80;;
35518;SDS011;21627;48.216;16.482;2023-05-29T08:25:47;5.97;;;2.83;;
35518;SDS011;21627;48.216;16.482;2023-05-29T08:28:14;9.45;;;3.28;;
35518;SDS011;21627;48.216;16.482;2023-05-29T08:30:42;5.45;;;2.97;;
35518;SDS011;21627;48.216;16.482;2023-05-29T08:33:09;17.52;;;3.90;;
35518;SDS011;21627;48.216;16.482;2023-05-29T08:35:36;7.28;;;3.15;;
35518;SDS011;21627;48.216;16.482;2023-05-29T08:38:03;8.98;;;3.10;;
35518;SDS011;21627;48.216;16.482;2023-05-29T08:40:30;6.57;;;3.03;;
35518;SDS011;21627;48.216;16.482;2023-05-29T08:42:59;9.55;;;3.03;;
35518;SDS011;21627;48.216;16.482;2023-05-29T08:45:52;7.10;;;3.20;;
35518;SDS011;21627;48.216;16.482;2023-05-29T08:48:24;10.00;;;3.28;;
35518;SDS011;21627;48.216;16.482;2023-05-29T08:50:53;8.88;;;3.20;;
35518;SDS011;21627;48.216;16.482;2023-05-29T08:53:23;10.93;;;3.05;;
35518;SDS011;21627;48.216;16.482;2023-05-29T08:55:52;6.30;;;3.38;;
35518;SDS011;21627;48.216;16.482;2023-05-29T08:58:20;5.20;;;3.00;;
35518;SDS011;21627;48.216;16.482;2023-05-29T09:00:48;8.93;;;3.38;;
35518;SDS011;21627;48.216;16.482;2023-05-29T09:03:17;8.25;;;3.10;;
35518;SDS011;21627;48.216;16.482;2023-05-29T09:05:46;13.63;;;3.10;;
35518;SDS011;21627;48.216;16.482;2023-05-29T09:08:15;5.60;;;2.97;;
35518;SDS011;21627;48.216;16.482;2023-05-29T09:10:44;10.23;;;3.70;;
35518;SDS011;21627;48.216;16.482;2023-05-29T09:13:12;10.07;;;3.50;;
35518;SDS011;21627;48.216;16.482;2023-05-29T09:15:41;5.72;;;3.42;;
35518;SDS011;21627;48.216;16.482;2023-05-29T09:18:12;13.10;;;4.25;;
35518;SDS011;21627;48.216;16.482;2023-05-29T09:20:39;8.00;;;3.70;;
35518;SDS011;21627;48.216;16.482;2023-05-29T09:23:07;11.77;;;3.50;;
35518;SDS011;21627;48.216;16.482;2023-05-29T09:25:39;4.40;;;2.80;;
35518;SDS011;21627;48.216;16.482;2023-05-29T09:28:09;6.85;;;2.70;;
35518;SDS011;21627;48.216;16.482;2023-05-29T09:30:37;10.10;;;3.35;;
35518;SDS011;21627;48.216;16.482;2023-05-29T09:33:13;13.07;;;4.15;;
35518;SDS011;21627;48.216;16.482;2023-05-29T09:35:43;6.10;;;3.35;;
35518;SDS011;21627;48.216;16.482;2023-05-29T09:38:13;5.07;;;2.85;;
35518;SDS011;21627;48.216;16.482;2023-05-29T09:41:05;5.10;;;2.72;;
35518;SDS011;21627;48.216;16.482;2023-05-29T09:43:32;7.13;;;3.25;;
35518;SDS011;21627;48.216;16.482;2023-05-29T09:46:01;6.03;;;3.00;;
35518;SDS011;21627;48.216;16.482;2023-05-29T09:48:29;7.10;;;3.03;;
35518;SDS011;21627;48.216;16.482;2023-05-29T09:50:57;6.95;;;2.95;;
35518;SDS011;21627;48.216;16.482;2023-05-29T09:53:25;6.50;;;2.80;;
35518;SDS011;21627;48.216;16.482;2023-05-29T09:55:55;7.50;;;3.13;;
35518;SDS011;21627;48.216;16.482;2023-05-29T09:58:24;6.90;;;2.70;;
35518;SDS011;21627;48.216;16.482;2023-05-29T10:00:52;11.68;;;3.13;;
35518;SDS011;21627;48.216;16.482;2023-05-29T10:03:20;5.78;;;3.15;;
35518;SDS011;21627;48.216;16.482;2023-05-29T10:05:51;9.35;;;2.90;;
35518;SDS011;21627;48.216;16.482;2023-05-29T10:08:24;6.03;;;3.03;;
35518;SDS011;21627;48.216;16.482;2023-05-29T10:10:58;8.60;;;2.90;;
35518;SDS011;21627;48.216;16.482;2023-05-29T10:13:39;7.97;;;2.78;;
35518;SDS011;21627;48.216;16.482;2023-05-29T10:16:15;5.85;;;3.17;;
35518;SDS011;21627;48.216;16.482;2023-05-29T10:18:50;6.68;;;2.75;;
35518;SDS011;21627;48.216;16.482;2023-05-29T10:21:21;6.68;;;3.28;;
35518;SDS011;21627;48.216;16.482;2023-05-29T10:23:52;7.85;;;3.20;;
35518;SDS011;21627;48.216;16.482;2023-05-29T10:26:26;10.70;;;3.05;;
35518;SDS011;21627;48.216;16.482;2023-05-29T10:29:12;7.00;;;2.55;;
35518;SDS011;21627;48.216;16.482;2023-05-29T10:32:21;6.43;;;2.38;;
35518;SDS011;21627;48.216;16.482;2023-05-29T10:38:13;4.30;;;2.65;;
35518;SDS011;21627;48.216;16.482;2023-05-29T10:40:44;4.45;;;2.60;;
35518;SDS011;21627;48.216;16.482;2023-05-29T10:46:01;5.45;;;3.05;;
35518;SDS011;21627;48.216;16.482;2023-05-29T10:48:35;6.20;;;3.38;;
35518;SDS011;21627;48.216;16.482;2023-05-29T10:51:05;8.25;;;2.90;;
35518;SDS011;21627;48.216;16.482;2023-05-29T10:53:34;9.40;;;2.35;;
35518;SDS011;21627;48.216;16.482;2023-05-29T10:56:13;8.52;;;2.40;;
35518;SDS011;21627;48.216;16.482;2023-05-29T10:58:49;6.70;;;3.30;;
35518;SDS011;21627;48.216;16.482;2023-05-29T11:01:21;3.60;;;2.35;;
35518;SDS011;21627;48.216;16.482;2023-05-29T11:03:51;4.80;;;2.50;;
35518;SDS011;21627;48.216;16.482;2023-05-29T11:06:20;7.03;;;2.88;;
35518;SDS011;21627;48.216;16.482;2023-05-29T11:08:53;6.93;;;2.72;;
35518;SDS011;21627;48.216;16.482;2023-05-29T11:11:40;10.20;;;3.53;;
35518;SDS011;21627;48.216;16.482;2023-05-29T11:14:08;5.70;;;2.75;;
35518;SDS011;21627;48.216;16.482;2023-05-29T11:16:36;10.85;;;3.13;;
35518;SDS011;21627;48.216;16.482;2023-05-29T11:19:05;7.25;;;3.53;;
35518;SDS011;21627;48.216;16.482;2023-05-29T11:24:15;6.32;;;3.53;;
35518;SDS011;21627;48.216;16.482;2023-05-29T11:26:54;9.68;;;2.92;;
35518;SDS011;21627;48.216;16.482;2023-05-29T11:29:26;14.40;;;3.25;;
35518;SDS011;21627;48.216;16.482;2023-05-29T11:31:55;4.30;;;2.50;;
35518;SDS011;21627;48.216;16.482;2023-05-29T11:34:30;7.82;;;2.78;;
35518;SDS011;21627;48.216;16.482;2023-05-29T11:37:02;7.60;;;3.55;;
35518;SDS011;21627;48.216;16.482;2023-05-29T11:39:30;6.68;;;3.17;;
35518;SDS011;21627;48.216;16.482;2023-05-29T11:41:59;9.45;;;3.03;;
35518;SDS011;21627;48.216;16.482;2023-05-29T11:44:27;6.55;;;3.33;;
35518;SDS011;21627;48.216;16.482;2023-05-29T11:49:37;6.25;;;2.70;;
35518;SDS011;21627;48.216;16.482;2023-05-29T11:52:11;8.00;;;3.40;;
35518;SDS011;21627;48.216;16.482;2023-05-29T11:54:45;13.05;;;3.03;;
35518;SDS011;21627;48.216;16.482;2023-05-29T11:57:19;7.03;;;2.90;;
35518;SDS011;21627;48.216;16.482;2023-05-29T11:59:49;8.75;;;2.95;;
35518;SDS011;21627;48.216;16.482;2023-05-29T12:02:18;5.38;;;3.15;;
35518;SDS011;21627;48.216;16.482;2023-05-29T12:05:01;5.40;;;2.97;;
35518;SDS011;21627;48.216;16.482;2023-05-29T12:07:30;5.50;;;3.00;;
35518;SDS011;21627;48.216;16.482;2023-05-29T12:10:00;8.07;;;3.42;;
35518;SDS011;21627;48.216;16.482;2023-05-29T12:12:39;11.43;;;2.80;;
35518;SDS011;21627;48.216;16.482;2023-05-29T12:15:07;15.25;;;4.13;;
35518;SDS011;21627;48.216;16.482;2023-05-29T12:17:35;9.00;;;3.35;;
35518;SDS011;21627;48.216;16.482;2023-05-29T12:20:03;7.90;;;3.55;;
35518;SDS011;21627;48.216;16.482;2023-05-29T12:22:38;7.57;;;4.00;;
35518;SDS011;21627;48.216;16.482;2023-05-29T12:25:07;7.05;;;3.75;;
35518;SDS011;21627;48.216;16.482;2023-05-29T12:27:39;9.75;;;3.88;;
35518;SDS011;21627;48.216;16.482;2023-05-29T12:30:14;10.88;;;5.05;;
35518;SDS011;21627;48.216;16.482;2023-05-29T12:32:58;8.93;;;3.90;;
35518;SDS011;21627;48.216;16.482;2023-05-29T12:35:27;9.98;;;5.22;;
35518;SDS011;21627;48.216;16.482;2023-05-29T12:37:57;8.90;;;3.70;;
35518;SDS011;21627;48.216;16.482;2023-05-29T12:40:33;8.63;;;4.65;;
35518;SDS011;21627;48.216;16.482;2023-05-29T12:43:06;5.65;;;3.17;;
35518;SDS011;21627;48.216;16.482;2023-05-29T12:45:39;11.23;;;3.90;;
35518;SDS011;21627;48.216;16.482;2023-05-29T12:48:07;11.38;;;3.67;;
35518;SDS011;21627;48.216;16.482;2023-05-29T12:50:37;7.13;;;3.33;;
35518;SDS011;21627;48.216;16.482;2023-05-29T12:53:06;6.95;;;3.42;;
35518;SDS011;21627;48.216;16.482;2023-05-29T12:55:39;9.38;;;3.22;;
35518;SDS011;21627;48.216;16.482;2023-05-29T12:58:09;9.45;;;3.33;;
35518;SDS011;21627;48.216;16.482;2023-05-29T13:00:38;5.80;;;3.33;;
35518;SDS011;21627;48.216;16.482;2023-05-29T13:03:08;6.32;;;2.92;;
35518;SDS011;21627;48.216;16.482;2023-05-29T13:05:37;8.73;;;3.00;;
35518;SDS011;21627;48.216;16.482;2023-05-29T13:08:05;5.75;;;3.08;;
35518;SDS011;21627;48.216;16.482;2023-05-29T13:10:36;6.28;;;3.30;;
35518;SDS011;21627;48.216;16.482;2023-05-29T13:13:03;5.70;;;3.17;;
35518;SDS011;21627;48.216;16.482;2023-05-29T13:15:30;6.93;;;3.20;;
35518;SDS011;21627;48.216;16.482;2023-05-29T13:17:59;7.72;;;3.30;;
35518;SDS011;21627;48.216;16.482;2023-05-29T13:20:27;6.65;;;2.97;;
35518;SDS011;21627;48.216;16.482;2023-05-29T13:22:54;8.88;;;2.88;;
35518;SDS011;21627;48.216;16.482;2023-05-29T13:25:21;9.20;;;2.90;;
35518;SDS011;21627;48.216;16.482;2023-05-29T13:27:50;8.82;;;2.90;;
35518;SDS011;21627;48.216;16.482;2023-05-29T13:30:18;5.57;;;3.00;;
35518;SDS011;21627;48.216;16.482;2023-05-29T13:32:46;7.43;;;3.15;;
35518;SDS011;21627;48.216;16.482;2023-05-29T13:35:14;7.57;;;3.80;;
35518;SDS011;21627;48.216;16.482;2023-05-29T13:37:41;6.63;;;3.38;;
35518;SDS011;21627;48.216;16.482;2023-05-29T13:40:09;4.05;;;3.03;;
35518;SDS011;21627;48.216;16.482;2023-05-29T13:42:38;8.05;;;3.47;;
35518;SDS011;21627;48.216;16.482;2023-05-29T13:45:06;9.02;;;3.65;;
35518;SDS011;21627;48.216;16.482;2023-05-29T13:47:35;8.65;;;2.92;;
35518;SDS011;21627;48.216;16.482;2023-05-29T13:50:02;9.05;;;3.25;;
35518;SDS011;21627;48.216;16.482;2023-05-29T13:52:31;7.57;;;3.17;;
35518;SDS011;21627;48.216;16.482;2023-05-29T13:54:58;7.65;;;3.42;;
35518;SDS011;21627;48.216;16.482;2023-05-29T13:57:31;8.10;;;3.50;;
35518;SDS011;21627;48.216;16.482;2023-05-29T13:59:58;8.95;;;3.13;;
35518;SDS011;21627;48.216;16.482;2023-05-29T14:02:25;12.18;;;3.80;;
35518;SDS011;21627;48.216;16.482;2023-05-29T14:04:53;9.98;;;4.20;;
35518;SDS011;21627;48.216;16.482;2023-05-29T14:07:20;8.85;;;3.20;;
35518;SDS011;21627;48.216;16.482;2023-05-29T14:09:47;6.65;;;3.80;;
35518;SDS011;21627;48.216;16.482;2023-05-29T14:12:14;4.22;;;3.13;;
35518;SDS011;21627;48.216;16.482;2023-05-29T14:14:42;6.45;;;3.47;;
35518;SDS011;21627;48.216;16.482;2023-05-29T14:17:09;10.38;;;3.38;;
35518;SDS011;21627;48.216;16.482;2023-05-29T14:19:36;4.07;;;2.78;;
35518;SDS011;21627;48.216;16.482;2023-05-29T14:22:03;5.15;;;3.50;;
35518;SDS011;21627;48.216;16.482;2023-05-29T14:24:30;6.10;;;3.17;;
35518;SDS011;21627;48.216;16.482;2023-05-29T14:26:58;9.05;;;3.70;;
35518;SDS011;21627;48.216;16.482;2023-05-29T14:29:27;5.78;;;3.05;;
35518;SDS011;21627;48.216;16.482;2023-05-29T14:31:55;5.05;;;3.25;;
35518;SDS011;21627;48.216;16.482;2023-05-29T14:34:22;5.30;;;3.58;;
35518;SDS011;21627;48.216;16.482;2023-05-29T14:36:49;7.60;;;3.58;;
35518;SDS011;21627;48.216;16.482;2023-05-29T14:39:18;6.50;;;3.17;;
35518;SDS011;21627;48.216;16.482;2023-05-29T14:41:46;5.63;;;3.28;;
35518;SDS011;21627;48.216;16.482;2023-05-29T14:44:13;4.43;;;2.83;;
35518;SDS011;21627;48.216;16.482;2023-05-29T14:46:40;5.75;;;3.40;;
35518;SDS011;21627;48.216;16.482;2023-05-29T14:49:08;7.32;;;3.53;;
35518;SDS011;21627;48.216;16.482;2023-05-29T14:51:35;12.68;;;4.13;;
35518;SDS011;21627;48.216;16.482;2023-05-29T14:54:02;8.35;;;3.40;;
35518;SDS011;21627;48.216;16.482;2023-05-29T14:56:30;10.00;;;3.58;;
35518;SDS011;21627;48.216;16.482;2023-05-29T14:58:57;6.82;;;3.70;;
35518;SDS011;21627;48.216;16.482;2023-05-29T15:01:24;7.15;;;3.20;;
35518;SDS011;21627;48.216;16.482;2023-05-29T15:03:51;8.05;;;3.60;;
35518;SDS011;21627;48.216;16.482;2023-05-29T15:06:19;11.98;;;3.60;;